createdAt,value
2019-04-21T00:01:01.808Z,554
2019-04-21T00:03:04.018Z,554
2019-04-21T00:05:06.217Z,554
2019-04-21T00:07:08.313Z,554
2019-04-21T00:09:10.400Z,554
2019-04-21T00:13:14.679Z,554
2019-04-21T00:15:16.819Z,554
2019-04-21T00:17:18.960Z,554
2019-04-21T00:19:21.104Z,554
2019-04-21T00:21:23.265Z,554
2019-04-21T00:23:25.382Z,554
2019-04-21T00:25:27.741Z,554
2019-04-21T00:27:29.721Z,554
2019-04-21T00:29:31.996Z,554
2019-04-21T00:31:34.034Z,554
2019-04-21T00:33:36.260Z,554
2019-04-21T00:35:38.298Z,554
2019-04-21T00:37:40.445Z,554
2019-04-21T00:39:42.673Z,554
2019-04-21T00:41:44.847Z,554
2019-04-21T00:43:47.004Z,554
2019-04-21T00:45:49.081Z,554
2019-04-21T00:47:51.217Z,554
2019-04-21T00:49:53.375Z,554
2019-04-21T00:51:55.499Z,554
2019-04-21T00:53:57.655Z,554
2019-04-21T00:58:02.002Z,554
2019-04-21T01:00:04.173Z,554
2019-04-21T01:02:06.306Z,554
2019-04-21T01:04:08.457Z,554
2019-04-21T01:06:10.772Z,554
2019-04-21T01:08:16.603Z,554
2019-04-21T01:10:14.956Z,554
2019-04-21T01:12:17.161Z,554
2019-04-21T01:14:19.284Z,554
2019-04-21T01:16:21.498Z,554
2019-04-21T01:18:23.597Z,554
2019-04-21T01:20:25.724Z,554
2019-04-21T01:22:28.020Z,554
2019-04-21T01:24:30.071Z,554
2019-04-21T01:26:32.220Z,554
2019-04-21T01:30:36.577Z,553
2019-04-21T01:32:38.737Z,554
2019-04-21T01:34:40.945Z,554
2019-04-21T01:36:43.025Z,553
2019-04-21T01:38:45.164Z,554
2019-04-21T01:40:47.325Z,554
2019-04-21T01:42:49.477Z,553
2019-04-21T01:44:51.741Z,553
2019-04-21T01:46:53.833Z,554
2019-04-21T01:48:55.994Z,554
2019-04-21T01:50:58.189Z,553
2019-04-21T01:53:00.263Z,555
2019-04-21T01:55:02.435Z,553
2019-04-21T01:57:04.588Z,553
2019-04-21T01:59:06.920Z,550
2019-04-21T02:01:08.930Z,550
2019-04-21T02:03:11.113Z,550
2019-04-21T02:05:13.267Z,550
2019-04-21T02:07:15.462Z,549
2019-04-21T02:09:17.719Z,555
2019-04-21T02:11:19.860Z,553
2019-04-21T02:13:21.960Z,552
2019-04-21T02:15:24.154Z,555
2019-04-21T02:17:26.402Z,554
2019-04-21T02:19:28.512Z,553
2019-04-21T02:21:30.657Z,554
2019-04-21T02:23:32.848Z,554
2019-04-21T02:25:35.061Z,553
2019-04-21T02:27:37.232Z,554
2019-04-21T02:29:39.360Z,553
2019-04-21T02:31:41.577Z,554
2019-04-21T02:33:43.711Z,554
2019-04-21T02:35:45.918Z,554
2019-04-21T02:37:48.058Z,554
2019-04-21T02:39:50.306Z,554
2019-04-21T02:41:52.406Z,554
2019-04-21T02:43:54.606Z,554
2019-04-21T02:45:56.708Z,553
2019-04-21T02:47:58.890Z,554
2019-04-21T02:50:01.114Z,554
2019-04-21T02:52:03.317Z,554
2019-04-21T02:54:05.425Z,554
2019-04-21T02:56:07.816Z,554
2019-04-21T02:58:09.689Z,554
2019-04-21T03:00:11.871Z,554
2019-04-21T03:04:16.188Z,554
2019-04-21T03:06:18.474Z,554
2019-04-21T03:08:20.555Z,554
2019-04-21T03:10:22.685Z,554
2019-04-21T03:12:24.832Z,554
2019-04-21T03:14:26.997Z,554
2019-04-21T03:16:29.173Z,554
2019-04-21T03:18:31.354Z,554
2019-04-21T03:20:33.536Z,554
2019-04-21T03:22:35.746Z,554
2019-04-21T03:24:37.876Z,554
2019-04-21T03:28:42.307Z,554
2019-04-21T03:30:44.525Z,554
2019-04-21T03:32:50.230Z,554
2019-04-21T03:34:48.785Z,554
2019-04-21T03:36:51.032Z,554
2019-04-21T03:38:53.166Z,554
2019-04-21T03:40:55.347Z,554
2019-04-21T03:42:57.631Z,554
2019-04-21T03:44:59.842Z,554
2019-04-21T03:47:01.918Z,554
2019-04-21T03:49:04.062Z,554
2019-04-21T03:51:06.318Z,554
2019-04-21T03:53:08.471Z,554
2019-04-21T03:55:10.620Z,554
2019-04-21T03:57:12.816Z,554
2019-04-21T03:59:15.009Z,554
2019-04-21T04:01:17.177Z,554
2019-04-21T04:03:19.345Z,554
2019-04-21T04:05:21.566Z,554
2019-04-21T04:07:23.724Z,554
2019-04-21T04:09:26.000Z,554
2019-04-21T04:11:28.076Z,554
2019-04-21T04:13:30.269Z,554
2019-04-21T04:15:32.541Z,554
2019-04-21T04:17:34.758Z,554
2019-04-21T04:19:36.876Z,554
2019-04-21T04:21:39.021Z,554
2019-04-21T04:23:41.209Z,554
2019-04-21T04:25:43.492Z,554
2019-04-21T04:27:45.744Z,554
2019-04-21T04:29:47.794Z,554
2019-04-21T04:31:50.052Z,554
2019-04-21T04:33:52.178Z,554
2019-04-21T04:35:54.365Z,554
2019-04-21T04:37:56.709Z,554
2019-04-21T04:39:58.738Z,554
2019-04-21T04:42:00.915Z,554
2019-04-21T04:44:03.131Z,554
2019-04-21T04:46:05.476Z,554
2019-04-21T04:48:07.560Z,554
2019-04-21T04:50:09.729Z,554
2019-04-21T04:52:11.858Z,554
2019-04-21T04:54:14.175Z,554
2019-04-21T04:56:16.215Z,554
2019-04-21T04:58:18.611Z,554
2019-04-21T05:00:20.565Z,554
2019-04-21T05:02:22.733Z,554
2019-04-21T05:04:24.951Z,554
2019-04-21T05:06:27.108Z,554
2019-04-21T05:08:29.352Z,554
2019-04-21T05:10:31.572Z,554
2019-04-21T05:12:33.668Z,554
2019-04-21T05:14:35.856Z,554
2019-04-21T05:18:40.276Z,554
2019-04-21T05:20:42.401Z,554
2019-04-21T05:22:44.600Z,554
2019-04-21T05:26:48.970Z,554
2019-04-21T05:28:51.121Z,554
2019-04-21T05:30:53.317Z,554
2019-04-21T05:32:55.578Z,554
2019-04-21T05:34:58.141Z,554
2019-04-21T05:36:59.880Z,554
2019-04-21T05:39:02.060Z,554
2019-04-21T05:41:04.272Z,554
2019-04-21T05:43:06.456Z,554
2019-04-21T05:45:08.654Z,554
2019-04-21T05:49:13.048Z,554
2019-04-21T05:51:15.254Z,554
2019-04-21T05:53:17.344Z,554
2019-04-21T05:55:19.602Z,554
2019-04-21T05:57:21.676Z,554
2019-04-21T05:59:23.865Z,554
2019-04-21T06:01:26.038Z,554
2019-04-21T06:03:28.231Z,554
2019-04-21T06:05:30.421Z,554
2019-04-21T06:07:32.648Z,554
2019-04-21T06:09:34.876Z,554
2019-04-21T06:11:36.988Z,554
2019-04-21T06:13:39.140Z,554
2019-04-21T06:15:41.321Z,554
2019-04-21T06:17:43.548Z,554
2019-04-21T06:19:45.607Z,554
2019-04-21T06:21:47.785Z,554
2019-04-21T06:23:49.961Z,554
2019-04-21T06:25:52.254Z,554
2019-04-21T06:27:54.296Z,554
2019-04-21T06:29:56.431Z,554
2019-04-21T06:31:58.598Z,554
2019-04-21T06:34:00.820Z,554
2019-04-21T06:36:02.982Z,554
2019-04-21T06:38:05.074Z,554
2019-04-21T06:40:07.243Z,554
2019-04-21T06:42:09.482Z,554
2019-04-21T06:44:15.757Z,554
2019-04-21T06:46:13.655Z,554
2019-04-21T06:48:15.877Z,554
2019-04-21T06:50:18.093Z,554
2019-04-21T06:52:20.056Z,554
2019-04-21T06:54:22.197Z,554
2019-04-21T06:56:24.419Z,554
2019-04-21T06:58:26.437Z,554
2019-04-21T07:00:28.546Z,554
2019-04-21T07:04:32.811Z,554
2019-04-21T07:06:35.254Z,554
2019-04-21T07:08:37.168Z,554
2019-04-21T07:12:41.414Z,554
2019-04-21T07:14:43.509Z,554
2019-04-21T07:16:45.574Z,554
2019-04-21T07:18:47.748Z,554
2019-04-21T07:20:49.951Z,554
2019-04-21T07:22:51.979Z,554
2019-04-21T07:24:54.396Z,554
2019-04-21T07:26:56.187Z,554
2019-04-21T07:28:58.321Z,554
2019-04-21T07:31:00.431Z,554
2019-04-21T07:33:02.530Z,554
2019-04-21T07:35:04.744Z,554
2019-04-21T07:37:06.735Z,554
2019-04-21T07:39:08.868Z,554
2019-04-21T07:41:13.551Z,554
2019-04-21T07:43:13.262Z,554
2019-04-21T07:45:15.172Z,554
2019-04-21T07:47:17.374Z,554
2019-04-21T07:51:21.764Z,554
2019-04-21T07:53:23.560Z,554
2019-04-21T07:55:25.651Z,554
2019-04-21T07:57:27.782Z,554
2019-04-21T07:59:29.850Z,554
2019-04-21T08:01:31.941Z,554
2019-04-21T08:03:34.043Z,554
2019-04-21T08:05:36.135Z,554
2019-04-21T08:07:39.123Z,554
2019-04-21T08:09:40.414Z,554
2019-04-21T08:11:42.394Z,554
2019-04-21T08:13:44.490Z,554
2019-04-21T08:15:46.634Z,555
2019-04-21T08:17:48.703Z,554
2019-04-21T08:21:52.855Z,554
2019-04-21T08:23:54.984Z,555
2019-04-21T08:25:57.949Z,555
2019-04-21T08:27:59.059Z,554
2019-04-21T08:30:01.105Z,555
2019-04-21T08:32:03.177Z,555
2019-04-21T08:34:05.327Z,555
2019-04-21T08:36:07.322Z,555
2019-04-21T08:38:09.348Z,555
2019-04-21T08:40:11.409Z,555
2019-04-21T08:42:13.474Z,555
2019-04-21T08:44:15.624Z,555
2019-04-21T08:46:21.138Z,555
2019-04-21T08:48:19.678Z,555
2019-04-21T08:50:21.763Z,555
2019-04-21T08:52:23.861Z,555
2019-04-21T08:54:25.902Z,555
2019-04-21T08:56:28.418Z,555
2019-04-21T08:58:30.028Z,555
2019-04-21T09:00:32.149Z,555
2019-04-21T09:02:34.122Z,555
2019-04-21T09:04:36.542Z,555
2019-04-21T09:06:38.279Z,555
2019-04-21T09:08:40.288Z,554
2019-04-21T09:10:42.348Z,554
2019-04-21T09:12:47.660Z,554
2019-04-21T09:14:46.618Z,554
2019-04-21T09:16:48.528Z,554
2019-04-21T09:18:50.580Z,554
2019-04-21T09:20:52.691Z,554
2019-04-21T09:22:54.684Z,554
2019-04-21T09:24:56.732Z,554
2019-04-21T09:26:58.865Z,554
2019-04-21T09:29:00.877Z,554
2019-04-21T09:31:02.880Z,554
2019-04-21T09:33:05.027Z,554
2019-04-21T09:35:07.117Z,554
2019-04-21T09:37:09.068Z,554
2019-04-21T09:39:11.180Z,554
2019-04-21T09:41:13.212Z,554
2019-04-21T09:43:15.264Z,554
2019-04-21T09:45:17.312Z,554
2019-04-21T09:47:19.379Z,554
2019-04-21T09:49:21.570Z,554
2019-04-21T09:51:23.512Z,554
2019-04-21T09:53:25.519Z,554
2019-04-21T09:55:27.799Z,554
2019-04-21T09:57:29.626Z,554
2019-04-21T09:59:31.663Z,554
2019-04-21T10:01:33.828Z,554
2019-04-21T10:03:35.793Z,554
2019-04-21T10:05:37.827Z,554
2019-04-21T10:07:39.987Z,554
2019-04-21T10:09:41.929Z,554
2019-04-21T10:11:43.979Z,554
2019-04-21T10:13:46.080Z,554
2019-04-21T10:15:48.091Z,554
2019-04-21T10:17:50.197Z,554
2019-04-21T10:19:52.323Z,554
2019-04-21T10:21:54.351Z,554
2019-04-21T10:23:56.331Z,554
2019-04-21T10:25:58.411Z,554
2019-04-21T10:28:00.626Z,554
2019-04-21T10:30:02.501Z,554
2019-04-21T10:32:04.569Z,554
2019-04-21T10:34:06.636Z,554
2019-04-21T10:36:08.668Z,554
2019-04-21T10:38:10.705Z,554
2019-04-21T10:40:12.753Z,554
2019-04-21T10:42:14.815Z,554
2019-04-21T10:44:16.845Z,554
2019-04-21T10:46:18.913Z,554
2019-04-21T10:48:24.572Z,554
2019-04-21T10:52:25.089Z,554
2019-04-21T10:54:27.050Z,554
2019-04-21T10:56:29.121Z,554
2019-04-21T10:58:31.143Z,554
2019-04-21T11:00:33.178Z,554
2019-04-21T11:02:35.303Z,554
2019-04-21T11:04:37.329Z,554
2019-04-21T11:06:39.305Z,554
2019-04-21T11:08:41.699Z,554
2019-04-21T11:10:43.372Z,554
2019-04-21T11:12:45.400Z,554
2019-04-21T11:14:47.663Z,554
2019-04-21T11:18:51.671Z,554
2019-04-21T11:20:53.493Z,554
2019-04-21T11:22:55.531Z,554
2019-04-21T11:24:57.665Z,554
2019-04-21T11:26:59.587Z,554
2019-04-21T11:29:01.668Z,554
2019-04-21T11:31:03.634Z,554
2019-04-21T11:33:05.711Z,554
2019-04-21T11:35:07.649Z,554
2019-04-21T11:37:09.703Z,554
2019-04-21T11:39:12.025Z,554
2019-04-21T11:41:13.823Z,554
2019-04-21T11:43:15.822Z,554
2019-04-21T11:45:18.008Z,554
2019-04-21T11:47:19.787Z,554
2019-04-21T11:49:21.794Z,554
2019-04-21T11:51:23.778Z,554
2019-04-21T11:53:25.780Z,555
2019-04-21T11:55:27.999Z,554
2019-04-21T11:57:29.817Z,554
2019-04-21T11:59:32.884Z,554
2019-04-21T12:01:34.137Z,555
2019-04-21T12:03:35.915Z,555
2019-04-21T12:05:37.856Z,555
2019-04-21T12:07:40.400Z,554
2019-04-21T12:09:41.808Z,555
2019-04-21T12:11:43.866Z,555
2019-04-21T12:13:46.051Z,555
2019-04-21T12:19:51.801Z,555
2019-04-21T12:21:53.732Z,555
2019-04-21T12:23:55.741Z,555
2019-04-21T12:25:58.285Z,555
2019-04-21T12:27:59.660Z,555
2019-04-21T12:30:01.632Z,555
2019-04-21T12:32:03.734Z,555
2019-04-21T12:34:05.656Z,555
2019-04-21T12:36:07.573Z,555
2019-04-21T12:38:09.714Z,555
2019-04-21T12:40:11.576Z,555
2019-04-21T12:42:13.550Z,555
2019-04-21T12:44:15.679Z,555
2019-04-21T12:46:17.561Z,555
2019-04-21T12:48:19.536Z,555
2019-04-21T12:50:21.565Z,555
2019-04-21T12:52:23.536Z,555
2019-04-21T12:54:25.636Z,555
2019-04-21T12:56:27.554Z,555
2019-04-21T12:58:29.527Z,555
2019-04-21T13:00:31.678Z,555
2019-04-21T13:02:33.539Z,555
2019-04-21T13:04:35.552Z,555
2019-04-21T13:06:37.588Z,555
2019-04-21T13:08:39.640Z,555
2019-04-21T13:10:41.594Z,555
2019-04-21T13:12:43.680Z,555
2019-04-21T13:14:48.743Z,555
2019-04-21T13:16:47.681Z,555
2019-04-21T13:18:49.810Z,555
2019-04-21T13:20:51.688Z,555
2019-04-21T13:22:53.638Z,555
2019-04-21T13:24:56.395Z,555
2019-04-21T13:26:57.639Z,555
2019-04-21T13:28:59.800Z,555
2019-04-21T13:31:01.636Z,555
2019-04-21T13:33:03.620Z,555
2019-04-21T13:35:05.624Z,555
2019-04-21T13:37:07.644Z,555
2019-04-21T13:39:09.755Z,555
2019-04-21T13:41:11.692Z,555
2019-04-21T13:43:13.608Z,555
2019-04-21T13:45:15.617Z,555
2019-04-21T13:47:17.679Z,555
2019-04-21T13:49:19.661Z,555
2019-04-21T13:51:21.613Z,555
2019-04-21T13:55:25.631Z,555
2019-04-21T13:57:27.595Z,555
2019-04-21T13:59:29.597Z,555
2019-04-21T14:01:31.624Z,554
2019-04-21T14:03:33.589Z,555
2019-04-21T14:05:35.617Z,555
2019-04-21T14:07:37.603Z,557
2019-04-21T14:09:39.921Z,557
2019-04-21T14:11:41.592Z,549
2019-04-21T14:13:43.753Z,551
2019-04-21T14:15:45.604Z,555
2019-04-21T14:17:47.565Z,555
2019-04-21T14:19:49.663Z,555
2019-04-21T14:21:51.634Z,554
2019-04-21T14:23:53.711Z,554
2019-04-21T14:25:55.554Z,555
2019-04-21T14:27:57.569Z,554
2019-04-21T14:29:59.561Z,554
2019-04-21T14:32:01.571Z,555
2019-04-21T14:34:03.558Z,554
2019-04-21T14:38:07.614Z,555
2019-04-21T14:40:12.820Z,555
2019-04-21T14:42:11.569Z,555
2019-04-21T14:44:13.655Z,555
2019-04-21T14:46:15.649Z,555
2019-04-21T14:50:19.526Z,555
2019-04-21T14:52:21.734Z,555
2019-04-21T14:54:23.676Z,555
2019-04-21T14:56:31.777Z,555
2019-04-21T14:58:27.484Z,555
2019-04-21T15:00:29.537Z,555
2019-04-21T15:02:31.445Z,555
2019-04-21T15:04:33.446Z,555
2019-04-21T15:06:35.441Z,555
2019-04-21T15:08:37.417Z,555
2019-04-21T15:10:39.614Z,555
2019-04-21T15:12:41.422Z,555
2019-04-21T15:14:43.349Z,555
2019-04-21T15:16:45.357Z,555
2019-04-21T15:18:47.349Z,555
2019-04-21T15:20:49.289Z,555
2019-04-21T15:22:51.298Z,555
2019-04-21T15:24:53.247Z,555
2019-04-21T15:26:55.217Z,555
2019-04-21T15:28:57.182Z,555
2019-04-21T15:30:59.167Z,555
2019-04-21T15:33:01.128Z,555
2019-04-21T15:35:03.147Z,555
2019-04-21T15:37:05.201Z,555
2019-04-21T15:39:07.100Z,555
2019-04-21T15:41:09.091Z,555
2019-04-21T15:43:11.054Z,555
2019-04-21T15:45:13.046Z,555
2019-04-21T15:47:15.024Z,555
2019-04-21T15:49:17.017Z,555
2019-04-21T15:51:19.114Z,555
2019-04-21T15:53:21.008Z,555
2019-04-21T15:55:22.970Z,555
2019-04-21T15:57:24.946Z,555
2019-04-21T15:59:26.905Z,555
2019-04-21T16:01:28.900Z,555
2019-04-21T16:03:30.952Z,555
2019-04-21T16:05:32.849Z,555
2019-04-21T16:07:34.832Z,555
2019-04-21T16:09:36.794Z,555
2019-04-21T16:11:38.767Z,555
2019-04-21T16:13:40.839Z,555
2019-04-21T16:15:42.724Z,555
2019-04-21T16:17:44.721Z,555
2019-04-21T16:19:46.693Z,555
2019-04-21T16:23:50.675Z,555
2019-04-21T16:25:55.539Z,555
2019-04-21T16:27:54.733Z,555
2019-04-21T16:29:56.638Z,555
2019-04-21T16:31:58.695Z,555
2019-04-21T16:34:03.044Z,555
2019-04-21T16:36:02.736Z,555
2019-04-21T16:38:04.680Z,555
2019-04-21T16:40:06.694Z,555
2019-04-21T16:42:08.678Z,555
2019-04-21T16:44:10.691Z,555
2019-04-21T16:46:12.714Z,554
2019-04-21T16:48:14.694Z,554
2019-04-21T16:50:16.735Z,554
2019-04-21T16:52:18.818Z,554
2019-04-21T16:54:20.902Z,554
2019-04-21T16:56:22.739Z,554
2019-04-21T16:58:24.757Z,554
2019-04-21T17:00:26.931Z,554
2019-04-21T17:02:28.756Z,554
2019-04-21T17:04:30.797Z,554
2019-04-21T17:06:35.209Z,554
2019-04-21T17:08:34.798Z,554
2019-04-21T17:10:36.816Z,555
2019-04-21T17:12:38.825Z,554
2019-04-21T17:14:40.861Z,554
2019-04-21T17:16:44.803Z,554
2019-04-21T17:18:44.871Z,554
2019-04-21T17:20:46.903Z,554
2019-04-21T17:22:48.876Z,554
2019-04-21T17:24:50.942Z,554
2019-04-21T17:26:53.017Z,554
2019-04-21T17:28:54.948Z,554
2019-04-21T17:30:57.112Z,554
2019-04-21T17:32:59.029Z,554
2019-04-21T17:35:01.110Z,554
2019-04-21T17:37:03.047Z,554
2019-04-21T17:39:05.146Z,554
2019-04-21T17:41:07.881Z,554
2019-04-21T17:43:09.261Z,554
2019-04-21T17:45:11.195Z,554
2019-04-21T17:49:15.222Z,554
2019-04-21T17:51:17.268Z,554
2019-04-21T17:53:19.324Z,554
2019-04-21T17:55:21.398Z,554
2019-04-21T17:57:23.446Z,554
2019-04-21T17:59:25.405Z,554
2019-04-21T18:01:27.526Z,554
2019-04-21T18:03:29.602Z,554
2019-04-21T18:05:31.557Z,554
2019-04-21T18:07:33.599Z,554
2019-04-21T18:09:35.642Z,554
2019-04-21T18:11:37.697Z,554
2019-04-21T18:13:39.728Z,554
2019-04-21T18:15:41.885Z,554
2019-04-21T18:17:43.947Z,554
2019-04-21T18:19:45.941Z,554
2019-04-21T18:21:48.066Z,555
2019-04-21T18:23:50.040Z,554
2019-04-21T18:25:53.910Z,554
2019-04-21T18:27:54.169Z,554
2019-04-21T18:29:56.247Z,554
2019-04-21T18:31:58.340Z,554
2019-04-21T18:34:00.412Z,554
2019-04-21T18:36:02.503Z,554
2019-04-21T18:38:04.632Z,554
2019-04-21T18:40:06.849Z,554
2019-04-21T18:42:08.772Z,554
2019-04-21T18:44:10.902Z,554
2019-04-21T18:46:13.256Z,554
2019-04-21T18:48:15.208Z,554
2019-04-21T18:50:17.295Z,554
2019-04-21T18:52:19.268Z,554
2019-04-21T18:54:21.412Z,554
2019-04-21T18:56:23.536Z,554
2019-04-21T18:58:25.617Z,554
2019-04-21T19:00:27.986Z,554
2019-04-21T19:02:29.808Z,554
2019-04-21T19:04:31.921Z,554
2019-04-21T19:06:34.013Z,554
2019-04-21T19:08:36.108Z,554
2019-04-21T19:10:38.219Z,554
2019-04-21T19:12:40.307Z,554
2019-04-21T19:14:42.391Z,553
2019-04-21T19:16:44.653Z,554
2019-04-21T19:18:46.606Z,554
2019-04-21T19:20:48.833Z,554
2019-04-21T19:22:50.775Z,554
2019-04-21T19:24:52.900Z,554
2019-04-21T19:28:57.144Z,554
2019-04-21T19:30:59.195Z,554
2019-04-21T19:33:01.277Z,554
2019-04-21T19:35:03.367Z,554
2019-04-21T19:37:05.542Z,554
2019-04-21T19:39:07.578Z,554
2019-04-21T19:41:09.646Z,554
2019-04-21T19:43:11.745Z,554
2019-04-21T19:45:13.854Z,554
2019-04-21T19:47:15.909Z,554
2019-04-21T19:49:18.038Z,554
2019-04-21T19:51:20.157Z,554
2019-04-21T19:53:22.351Z,553
2019-04-21T19:55:24.354Z,553
2019-04-21T19:57:26.414Z,553
2019-04-21T19:59:28.553Z,553
2019-04-21T20:03:32.737Z,553
2019-04-21T20:05:35.043Z,553
2019-04-21T20:07:37.014Z,553
2019-04-21T20:09:39.072Z,553
2019-04-21T20:11:41.232Z,553
2019-04-21T20:13:43.270Z,554
2019-04-21T20:15:45.367Z,554
2019-04-21T20:17:47.495Z,554
2019-04-21T20:19:49.635Z,554
2019-04-21T20:21:51.718Z,554
2019-04-21T20:23:53.798Z,554
2019-04-21T20:25:55.924Z,554
2019-04-21T20:27:58.006Z,554
2019-04-21T20:30:00.125Z,554
2019-04-21T20:32:02.276Z,554
2019-04-21T20:34:04.293Z,554
2019-04-21T20:36:06.642Z,554
2019-04-21T20:38:08.499Z,554
2019-04-21T20:40:10.651Z,554
2019-04-21T20:42:12.728Z,554
2019-04-21T20:44:14.839Z,553
2019-04-21T20:46:17.007Z,554
2019-04-21T20:48:19.061Z,553
2019-04-21T20:50:21.135Z,554
2019-04-21T20:52:23.224Z,554
2019-04-21T20:54:25.319Z,554
2019-04-21T20:56:27.412Z,553
2019-04-21T20:58:29.513Z,553
2019-04-21T21:00:31.613Z,553
2019-04-21T21:02:33.755Z,553
2019-04-21T21:04:35.921Z,553
2019-04-21T21:06:37.951Z,553
2019-04-21T21:08:40.058Z,553
2019-04-21T21:10:42.152Z,553
2019-04-21T21:12:44.286Z,553
2019-04-21T21:14:46.419Z,553
2019-04-21T21:16:48.462Z,553
2019-04-21T21:18:50.579Z,553
2019-04-21T21:20:52.650Z,553
2019-04-21T21:22:54.738Z,553
2019-04-21T21:24:56.847Z,553
2019-04-21T21:26:59.052Z,553
2019-04-21T21:29:01.060Z,553
2019-04-21T21:31:03.493Z,553
2019-04-21T21:33:05.346Z,553
2019-04-21T21:35:07.494Z,553
2019-04-21T21:37:09.497Z,553
2019-04-21T21:39:11.629Z,553
2019-04-21T21:41:13.768Z,553
2019-04-21T21:43:15.906Z,553
2019-04-21T21:45:17.976Z,553
2019-04-21T21:47:20.000Z,553
2019-04-21T21:49:22.092Z,553
2019-04-21T21:51:24.286Z,553
2019-04-21T21:53:26.313Z,553
2019-04-21T21:55:28.415Z,553
2019-04-21T21:57:30.512Z,553
2019-04-21T21:59:32.634Z,553
2019-04-21T22:01:38.759Z,553
2019-04-21T22:03:36.834Z,553
2019-04-21T22:05:38.941Z,553
2019-04-21T22:07:41.053Z,553
2019-04-21T22:09:43.173Z,553
2019-04-21T22:11:45.277Z,553
2019-04-21T22:13:47.473Z,553
2019-04-21T22:15:49.806Z,553
2019-04-21T22:17:51.664Z,553
2019-04-21T22:19:53.739Z,553
2019-04-21T22:21:55.878Z,553
2019-04-21T22:23:57.984Z,553
2019-04-21T22:26:00.471Z,553
2019-04-21T22:28:02.210Z,553
2019-04-21T22:30:04.315Z,553
2019-04-21T22:32:06.472Z,553
2019-04-21T22:34:08.539Z,553
2019-04-21T22:36:10.663Z,553
2019-04-21T22:38:12.753Z,553
2019-04-21T22:40:14.935Z,553
2019-04-21T22:42:17.088Z,553
2019-04-21T22:44:19.103Z,553
2019-04-21T22:46:21.309Z,553
2019-04-21T22:48:23.378Z,553
2019-04-21T22:50:25.528Z,553
2019-04-21T22:52:27.677Z,553
2019-04-21T22:54:29.762Z,553
2019-04-21T22:56:31.889Z,553
2019-04-21T22:58:34.098Z,553
2019-04-21T23:00:36.164Z,553
2019-04-21T23:02:38.301Z,553
2019-04-21T23:04:40.692Z,553
2019-04-21T23:06:42.578Z,553
2019-04-21T23:08:44.717Z,553
2019-04-21T23:10:46.872Z,553
2019-04-21T23:12:49.010Z,553
2019-04-21T23:14:51.181Z,553
2019-04-21T23:16:53.310Z,553
2019-04-21T23:18:55.435Z,553
2019-04-21T23:20:57.684Z,553
2019-04-21T23:23:02.205Z,553
2019-04-21T23:25:01.860Z,553
2019-04-21T23:27:04.031Z,553
2019-04-21T23:29:06.169Z,553
2019-04-21T23:31:08.324Z,553
2019-04-21T23:33:10.462Z,553
2019-04-21T23:35:12.650Z,553
2019-04-21T23:37:14.758Z,553
2019-04-21T23:39:16.920Z,553
2019-04-21T23:41:19.073Z,553
2019-04-21T23:43:21.331Z,553
2019-04-21T23:45:23.432Z,553
2019-04-21T23:47:25.528Z,553
2019-04-21T23:49:27.768Z,553
2019-04-21T23:51:29.833Z,553
2019-04-21T23:53:32.009Z,553
2019-04-21T23:55:34.175Z,553
2019-04-21T23:57:36.328Z,553
2019-04-21T23:59:38.466Z,553
